createdAt,value
2018-12-21T00:00:17.853Z,104.28
2018-12-21T00:03:21.979Z,104.13
2018-12-21T00:06:25.620Z,104.23
2018-12-21T00:09:29.163Z,104.07
2018-12-21T00:12:32.737Z,104.19
2018-12-21T00:15:36.309Z,103.62
2018-12-21T00:18:39.942Z,103.42
2018-12-21T00:21:43.643Z,103.57
2018-12-21T00:24:47.169Z,103.39
2018-12-21T00:27:50.676Z,103.09
2018-12-21T00:30:59.849Z,102.51
2018-12-21T00:34:08.841Z,102.75
2018-12-21T00:37:17.704Z,102.63
2018-12-21T00:40:26.418Z,102.90
2018-12-21T00:43:35.156Z,102.78
2018-12-21T00:46:45.604Z,103.70
2018-12-21T00:49:49.118Z,103.96
2018-12-21T00:52:52.627Z,104.50
2018-12-21T00:55:56.176Z,105.23
2018-12-21T00:58:59.741Z,105.87
2018-12-21T01:02:03.427Z,105.99
2018-12-21T01:05:07.232Z,105.97
2018-12-21T01:08:11.084Z,106.06
2018-12-21T01:11:14.593Z,106.30
2018-12-21T01:14:18.072Z,106.41
2018-12-21T01:17:21.689Z,106.55
2018-12-21T01:20:25.601Z,106.84
2018-12-21T01:23:29.244Z,107.17
2018-12-21T01:26:32.977Z,107.22
2018-12-21T01:29:36.485Z,107.37
2018-12-21T01:32:40.026Z,107.00
2018-12-21T01:35:43.491Z,107.30
2018-12-21T01:38:47.057Z,107.30
2018-12-21T01:41:50.558Z,106.80
2018-12-21T01:44:54.477Z,106.22
2018-12-21T01:47:58.104Z,106.38
2018-12-21T01:51:02.066Z,106.56
2018-12-21T01:54:05.531Z,106.55
2018-12-21T01:57:09.142Z,106.51
2018-12-21T02:00:12.856Z,106.04
2018-12-21T02:03:16.318Z,105.48
2018-12-21T02:06:19.798Z,105.43
2018-12-21T02:09:23.358Z,106.01
2018-12-21T02:12:26.890Z,106.10
2018-12-21T02:15:30.408Z,106.62
2018-12-21T02:18:33.929Z,106.99
2018-12-21T02:21:37.564Z,106.84
2018-12-21T02:24:41.168Z,106.93
2018-12-21T02:27:44.613Z,107.44
2018-12-21T02:30:48.238Z,107.50
2018-12-21T02:33:51.843Z,107.53
2018-12-21T02:36:55.303Z,107.52
2018-12-21T02:39:58.821Z,107.39
2018-12-21T02:43:02.386Z,107.17
2018-12-21T02:46:05.919Z,106.84
2018-12-21T02:49:09.392Z,106.90
2018-12-21T02:52:12.975Z,107.09
2018-12-21T02:55:16.463Z,106.98
2018-12-21T02:58:19.951Z,107.03
2018-12-21T03:01:23.439Z,106.72
2018-12-21T03:04:26.928Z,106.74
2018-12-21T03:07:30.626Z,106.33
2018-12-21T03:10:34.228Z,105.90
2018-12-21T03:13:37.752Z,105.67
2018-12-21T03:16:41.248Z,105.14
2018-12-21T03:19:44.774Z,105.06
2018-12-21T03:22:48.228Z,104.74
2018-12-21T03:25:51.691Z,104.07
2018-12-21T03:28:55.291Z,104.15
2018-12-21T03:31:58.804Z,103.87
2018-12-21T03:35:02.440Z,103.52
2018-12-21T03:38:06.059Z,103.28
2018-12-21T03:41:09.678Z,103.13
2018-12-21T03:44:13.122Z,101.57
2018-12-21T03:47:16.614Z,101.06
2018-12-21T03:50:20.126Z,101.48
2018-12-21T03:53:23.719Z,102.28
2018-12-21T03:56:27.202Z,101.61
2018-12-21T03:59:30.784Z,102.06
2018-12-21T04:02:34.284Z,102.01
2018-12-21T04:05:37.978Z,102.07
2018-12-21T04:08:41.457Z,101.49
2018-12-21T04:11:44.993Z,100.14
2018-12-21T04:14:48.617Z,100.17
2018-12-21T04:17:52.315Z,99.85
2018-12-21T04:20:55.896Z,99.75
2018-12-21T04:23:59.362Z,99.29
2018-12-21T04:27:03.091Z,99.32
2018-12-21T04:30:07.563Z,99.21
2018-12-21T04:33:11.013Z,99.58
2018-12-21T04:36:14.588Z,98.76
2018-12-21T04:39:18.124Z,97.71
2018-12-21T04:42:21.742Z,98.24
2018-12-21T04:45:25.215Z,97.72
2018-12-21T04:48:28.708Z,97.73
2018-12-21T04:51:32.228Z,98.30
2018-12-21T04:54:35.922Z,97.60
2018-12-21T04:57:39.513Z,97.75
2018-12-21T05:00:43.074Z,97.95
2018-12-21T05:03:46.971Z,97.66
2018-12-21T05:06:50.628Z,97.86
2018-12-21T05:09:56.523Z,97.15
2018-12-21T05:13:00.993Z,96.83
2018-12-21T05:16:04.706Z,97.40
2018-12-21T05:19:08.369Z,97.32
2018-12-21T05:22:11.841Z,97.28
2018-12-21T05:25:15.607Z,95.05
2018-12-21T05:28:19.103Z,95.96
2018-12-21T05:31:28.223Z,96.76
2018-12-21T05:34:28.738Z,95.10
2018-12-21T05:37:32.598Z,94.93
2018-12-21T05:40:36.159Z,94.95
2018-12-21T05:43:39.662Z,95.25
2018-12-21T05:46:43.198Z,95.12
2018-12-21T05:49:46.728Z,95.70
2018-12-21T05:52:51.021Z,94.91
2018-12-21T05:55:55.196Z,93.93
2018-12-21T05:58:59.627Z,92.87
2018-12-21T06:02:05.315Z,94.32
2018-12-21T06:05:08.773Z,93.43
2018-12-21T06:08:19.239Z,93.60
2018-12-21T06:11:22.778Z,93.74
2018-12-21T06:14:26.303Z,93.21
2018-12-21T06:17:29.900Z,93.45
2018-12-21T06:20:33.561Z,93.69
2018-12-21T06:23:37.040Z,94.64
2018-12-21T06:26:40.802Z,93.94
2018-12-21T06:29:44.645Z,92.62
2018-12-21T06:32:48.139Z,91.74
2018-12-21T06:35:51.674Z,93.48
2018-12-21T06:38:55.266Z,93.77
2018-12-21T06:41:58.851Z,94.40
2018-12-21T06:45:02.661Z,96.01
2018-12-21T06:48:06.152Z,96.44
2018-12-21T06:51:09.728Z,95.57
2018-12-21T06:54:13.500Z,95.73
2018-12-21T06:57:16.982Z,96.30
2018-12-21T07:00:20.531Z,98.21
2018-12-21T07:03:24.062Z,99.80
2018-12-21T07:06:27.637Z,100.56
2018-12-21T07:09:31.173Z,100.98
2018-12-21T07:12:34.697Z,100.41
2018-12-21T07:15:38.253Z,101.33
2018-12-21T07:18:41.803Z,101.28
2018-12-21T07:21:45.362Z,103.18
2018-12-21T07:24:48.930Z,102.95
2018-12-21T07:27:52.407Z,103.17
2018-12-21T07:30:56.000Z,103.56
2018-12-21T07:33:59.498Z,103.58
2018-12-21T07:37:03.318Z,103.04
2018-12-21T07:40:08.077Z,103.13
2018-12-21T07:43:11.656Z,103.32
2018-12-21T07:46:15.218Z,103.05
2018-12-21T07:49:18.778Z,103.08
2018-12-21T07:52:22.288Z,102.31
2018-12-21T07:55:25.811Z,102.19
2018-12-21T07:58:29.309Z,101.42
2018-12-21T08:01:32.865Z,101.19
2018-12-21T08:04:36.425Z,101.09
2018-12-21T08:07:39.952Z,100.66
2018-12-21T08:10:43.531Z,100.03
2018-12-21T08:13:47.012Z,100.29
2018-12-21T08:16:50.518Z,100.22
2018-12-21T08:19:54.936Z,100.71
2018-12-21T08:22:58.507Z,100.90
2018-12-21T08:26:02.724Z,99.90
2018-12-21T08:29:06.275Z,100.06
2018-12-21T08:32:09.796Z,100.80
2018-12-21T08:35:13.319Z,100.94
2018-12-21T08:38:16.846Z,101.20
2018-12-21T08:41:20.430Z,100.82
2018-12-21T08:44:24.085Z,100.49
2018-12-21T08:47:27.611Z,100.88
2018-12-21T08:50:31.095Z,100.07
2018-12-21T08:53:34.640Z,100.43
2018-12-21T08:56:38.184Z,99.65
2018-12-21T08:59:42.192Z,100.45
2018-12-21T09:02:45.644Z,101.25
2018-12-21T09:05:49.415Z,101.56
2018-12-21T09:08:53.085Z,101.56
2018-12-21T09:11:56.586Z,101.99
2018-12-21T09:15:00.085Z,101.91
2018-12-21T09:18:03.949Z,102.36
2018-12-21T09:21:07.421Z,103.07
2018-12-21T09:24:10.984Z,103.82
2018-12-21T09:27:14.555Z,103.54
2018-12-21T09:30:18.090Z,103.63
2018-12-21T09:33:21.525Z,104.09
2018-12-21T09:36:25.079Z,103.97
2018-12-21T09:39:28.590Z,104.20
2018-12-21T09:42:33.080Z,104.46
2018-12-21T09:45:36.610Z,105.58
2018-12-21T09:48:40.114Z,105.88
2018-12-21T09:51:45.362Z,105.53
2018-12-21T09:54:49.060Z,103.97
2018-12-21T09:57:56.633Z,103.28
2018-12-21T10:01:00.098Z,103.32
2018-12-21T10:04:03.715Z,103.80
2018-12-21T10:07:07.223Z,103.81
2018-12-21T10:10:11.798Z,102.65
2018-12-21T10:13:15.361Z,102.82
2018-12-21T10:16:19.557Z,103.20
2018-12-21T10:19:23.079Z,104.28
2018-12-21T10:22:26.543Z,104.57
2018-12-21T10:25:30.092Z,104.07
2018-12-21T10:28:34.083Z,104.63
2018-12-21T10:31:37.553Z,103.82
2018-12-21T10:34:41.115Z,103.07
2018-12-21T10:37:44.613Z,104.17
2018-12-21T10:40:48.100Z,103.65
2018-12-21T10:43:51.618Z,104.20
2018-12-21T10:46:55.261Z,103.86
2018-12-21T10:49:58.769Z,104.13
2018-12-21T10:53:03.072Z,104.00
2018-12-21T10:56:06.615Z,103.23
2018-12-21T10:59:10.079Z,103.05
2018-12-21T11:02:13.633Z,102.78
2018-12-21T11:05:17.070Z,103.50
2018-12-21T11:08:20.640Z,103.98
2018-12-21T11:11:24.310Z,103.94
2018-12-21T11:14:27.778Z,103.45
2018-12-21T11:17:31.410Z,103.37
2018-12-21T11:20:35.693Z,103.99
2018-12-21T11:23:39.199Z,104.20
2018-12-21T11:26:42.830Z,104.54
2018-12-21T11:29:46.287Z,104.63
2018-12-21T11:32:49.891Z,104.94
2018-12-21T11:35:53.471Z,105.17
2018-12-21T11:38:56.983Z,104.90
2018-12-21T11:42:00.467Z,105.19
2018-12-21T11:45:04.334Z,104.74
2018-12-21T11:48:07.829Z,105.25
2018-12-21T11:51:11.624Z,105.26
2018-12-21T11:54:15.186Z,105.16
2018-12-21T11:57:18.745Z,104.98
2018-12-21T12:00:22.218Z,105.72
2018-12-21T12:03:25.716Z,105.89
2018-12-21T12:06:29.278Z,105.98
2018-12-21T12:09:33.228Z,106.42
2018-12-21T12:12:36.813Z,106.54
2018-12-21T12:15:40.499Z,106.01
2018-12-21T12:18:44.005Z,105.99
2018-12-21T12:21:47.534Z,106.06
2018-12-21T12:24:52.858Z,105.95
2018-12-21T12:27:56.650Z,106.61
2018-12-21T12:31:00.209Z,106.95
2018-12-21T12:34:03.911Z,106.64
2018-12-21T12:37:07.520Z,107.05
2018-12-21T12:40:10.968Z,107.54
2018-12-21T12:43:14.478Z,108.08
2018-12-21T12:46:18.009Z,108.02
2018-12-21T12:49:21.517Z,107.96
2018-12-21T12:52:25.055Z,108.28
2018-12-21T12:55:28.633Z,108.91
2018-12-21T12:58:32.170Z,109.14
2018-12-21T13:01:35.683Z,109.60
2018-12-21T13:04:39.208Z,109.99
2018-12-21T13:07:42.723Z,110.12
2018-12-21T13:10:46.214Z,110.85
2018-12-21T13:13:49.923Z,111.21
2018-12-21T13:16:53.373Z,111.60
2018-12-21T13:19:56.974Z,111.89
2018-12-21T13:23:00.576Z,111.93
2018-12-21T13:26:04.128Z,112.08
2018-12-21T13:29:07.712Z,112.30
2018-12-21T13:32:11.279Z,112.34
2018-12-21T13:35:14.858Z,112.39
2018-12-21T13:38:18.437Z,112.50
2018-12-21T13:41:22.003Z,112.69
2018-12-21T13:44:25.687Z,112.82
2018-12-21T13:47:29.253Z,112.57
2018-12-21T13:50:33.627Z,112.59
2018-12-21T13:53:37.317Z,112.73
2018-12-21T13:56:42.973Z,112.78
2018-12-21T13:59:46.353Z,112.85
2018-12-21T14:02:49.923Z,112.97
2018-12-21T14:05:53.429Z,113.13
2018-12-21T14:08:57.174Z,113.23
2018-12-21T14:12:00.713Z,113.14
2018-12-21T14:15:04.599Z,113.27
2018-12-21T14:18:08.159Z,113.50
2018-12-21T14:21:11.754Z,113.46
2018-12-21T14:24:15.385Z,113.37
2018-12-21T14:27:19.019Z,113.34
2018-12-21T14:30:22.582Z,113.21
2018-12-21T14:33:26.034Z,113.11
2018-12-21T14:36:29.588Z,113.14
2018-12-21T14:39:33.538Z,113.20
2018-12-21T14:42:37.143Z,112.30
2018-12-21T14:45:40.738Z,112.33
2018-12-21T14:48:44.229Z,112.10
2018-12-21T14:51:47.974Z,111.28
2018-12-21T14:54:51.473Z,110.95
2018-12-21T14:57:55.282Z,110.60
2018-12-21T15:00:58.854Z,110.59
2018-12-21T15:04:02.535Z,110.27
2018-12-21T15:07:06.073Z,109.67
2018-12-21T15:10:10.972Z,109.66
2018-12-21T15:13:14.482Z,109.34
2018-12-21T15:16:18.047Z,108.77
2018-12-21T15:19:21.654Z,107.81
2018-12-21T15:22:25.194Z,107.52
2018-12-21T15:25:28.670Z,106.84
2018-12-21T15:28:32.163Z,106.26
2018-12-21T15:31:35.678Z,105.82
2018-12-21T15:34:39.162Z,105.61
2018-12-21T15:37:43.819Z,104.94
2018-12-21T15:40:47.413Z,104.84
2018-12-21T15:43:50.948Z,104.14
2018-12-21T15:46:54.459Z,103.71
2018-12-21T15:49:58.043Z,103.37
2018-12-21T15:53:01.620Z,103.49
2018-12-21T15:56:05.167Z,102.68
2018-12-21T15:59:08.677Z,101.57
2018-12-21T16:02:13.984Z,101.17
2018-12-21T16:05:17.738Z,101.69
2018-12-21T16:08:21.400Z,102.18
2018-12-21T16:11:24.970Z,101.60
2018-12-21T16:14:34.256Z,101.40
2018-12-21T16:17:34.030Z,101.38
2018-12-21T16:20:37.654Z,100.49
2018-12-21T16:23:41.183Z,100.08
2018-12-21T16:26:44.829Z,99.23
2018-12-21T16:29:48.447Z,99.01
2018-12-21T16:32:52.133Z,99.32
2018-12-21T16:35:55.763Z,98.93
2018-12-21T16:38:59.359Z,99.63
2018-12-21T16:42:02.902Z,98.46
2018-12-21T16:45:08.910Z,97.39
2018-12-21T16:48:12.579Z,96.21
2018-12-21T16:51:16.104Z,96.94
2018-12-21T16:54:19.718Z,95.80
2018-12-21T16:57:23.223Z,94.30
2018-12-21T17:00:26.869Z,94.45
2018-12-21T17:03:30.428Z,92.51
2018-12-21T17:06:34.033Z,92.60
2018-12-21T17:09:37.599Z,90.11
2018-12-21T17:12:41.053Z,90.26
2018-12-21T17:15:44.849Z,90.34
2018-12-21T17:18:48.409Z,89.62
2018-12-21T17:21:53.217Z,90.04
2018-12-21T17:24:56.987Z,90.78
2018-12-21T17:28:00.608Z,89.21
2018-12-21T17:31:04.393Z,89.44
2018-12-21T17:34:07.943Z,90.96
2018-12-21T17:37:11.507Z,90.65
2018-12-21T17:40:15.050Z,91.32
2018-12-21T17:43:18.547Z,90.49
2018-12-21T17:46:22.107Z,89.07
2018-12-21T17:49:25.734Z,88.85
2018-12-21T17:52:29.423Z,90.34
2018-12-21T17:55:33.070Z,90.42
2018-12-21T17:58:36.562Z,90.80
2018-12-21T18:01:46.457Z,90.82
2018-12-21T18:04:49.938Z,89.72
2018-12-21T18:07:54.464Z,92.03
2018-12-21T18:10:57.930Z,91.73
2018-12-21T18:14:01.454Z,90.42
2018-12-21T18:17:05.804Z,91.48
2018-12-21T18:20:11.558Z,92.29
2018-12-21T18:23:15.732Z,94.38
2018-12-21T18:26:19.352Z,97.98
2018-12-21T18:29:23.268Z,98.99
2018-12-21T18:32:37.102Z,100.05
2018-12-21T18:35:40.714Z,101.00
2018-12-21T18:38:44.662Z,101.38
2018-12-21T18:41:49.554Z,102.34
2018-12-21T18:44:53.053Z,103.49
2018-12-21T18:47:57.544Z,103.71
2018-12-21T18:51:01.043Z,104.29
2018-12-21T18:54:04.711Z,104.70
2018-12-21T18:57:11.312Z,105.13
2018-12-21T19:00:16.502Z,105.61
2018-12-21T19:03:20.062Z,105.58
2018-12-21T19:06:23.545Z,105.89
2018-12-21T19:09:27.834Z,106.17
2018-12-21T19:12:31.400Z,106.11
2018-12-21T19:15:34.882Z,106.43
2018-12-21T19:18:38.342Z,106.87
2018-12-21T19:21:42.834Z,106.84
2018-12-21T19:24:46.477Z,106.29
2018-12-21T19:27:50.056Z,106.47
2018-12-21T19:30:53.498Z,106.79
2018-12-21T19:33:57.027Z,106.55
2018-12-21T19:37:00.657Z,105.97
2018-12-21T19:40:04.970Z,106.25
2018-12-21T19:43:08.490Z,106.20
2018-12-21T19:46:12.077Z,106.13
2018-12-21T19:49:15.636Z,106.18
2018-12-21T19:52:19.179Z,105.61
2018-12-21T19:56:02.709Z,105.84
2018-12-21T19:59:07.097Z,105.88
2018-12-21T20:02:10.783Z,105.93
2018-12-21T20:05:14.334Z,106.07
2018-12-21T20:08:18.021Z,106.14
2018-12-21T20:11:21.525Z,105.73
2018-12-21T20:14:25.069Z,105.55
2018-12-21T20:17:28.818Z,105.66
2018-12-21T20:20:32.652Z,105.48
2018-12-21T20:23:36.191Z,105.48
2018-12-21T20:26:41.657Z,105.93
2018-12-21T20:29:45.742Z,105.74
2018-12-21T20:32:49.794Z,105.80
2018-12-21T20:35:53.616Z,105.99
2018-12-21T20:38:57.267Z,105.86
2018-12-21T20:42:00.821Z,106.06
2018-12-21T20:45:05.240Z,106.03
2018-12-21T20:48:08.935Z,105.94
2018-12-21T20:51:13.001Z,105.16
2018-12-21T20:54:17.133Z,105.35
2018-12-21T20:57:22.232Z,104.44
2018-12-21T21:00:25.992Z,105.03
2018-12-21T21:03:29.576Z,104.68
2018-12-21T21:06:33.220Z,104.42
2018-12-21T21:09:37.010Z,104.26
2018-12-21T21:12:41.139Z,104.32
2018-12-21T21:15:44.728Z,103.31
2018-12-21T21:18:48.366Z,103.36
2018-12-21T21:21:51.982Z,102.03
2018-12-21T21:24:55.720Z,102.24
2018-12-21T21:28:01.450Z,102.01
2018-12-21T21:31:05.350Z,102.10
2018-12-21T21:34:08.925Z,101.63
2018-12-21T21:37:12.445Z,101.76
2018-12-21T21:40:18.230Z,101.94
2018-12-21T21:43:21.767Z,101.04
2018-12-21T21:46:27.416Z,100.65
2018-12-21T21:49:31.025Z,101.01
2018-12-21T21:52:34.821Z,101.07
2018-12-21T21:55:38.411Z,100.74
2018-12-21T21:58:41.945Z,100.83
2018-12-21T22:01:47.042Z,100.38
2018-12-21T22:04:50.727Z,99.69
2018-12-21T22:07:54.278Z,99.50
2018-12-21T22:11:01.754Z,101.08
2018-12-21T22:14:03.496Z,101.49
2018-12-21T22:17:07.026Z,101.27
2018-12-21T22:20:12.079Z,101.81
2018-12-21T22:23:15.798Z,101.88
2018-12-21T22:26:19.463Z,102.44
2018-12-21T22:29:23.103Z,102.54
2018-12-21T22:32:26.614Z,103.11
2018-12-21T22:35:30.269Z,104.73
2018-12-21T22:38:34.654Z,105.56
2018-12-21T22:41:38.258Z,107.16
2018-12-21T22:44:41.820Z,107.80
2018-12-21T22:47:45.303Z,107.94
2018-12-21T22:50:48.923Z,107.53
2018-12-21T22:53:52.443Z,106.45
2018-12-21T22:56:56.002Z,106.42
2018-12-21T22:59:59.498Z,105.62
2018-12-21T23:03:03.020Z,105.32
2018-12-21T23:06:06.641Z,104.84
2018-12-21T23:09:10.188Z,104.93
2018-12-21T23:12:13.873Z,105.14
2018-12-21T23:15:17.411Z,105.49
2018-12-21T23:18:20.898Z,104.35
2018-12-21T23:21:24.441Z,104.68
2018-12-21T23:24:28.048Z,104.80
2018-12-21T23:27:31.576Z,103.89
2018-12-21T23:30:35.243Z,104.32
2018-12-21T23:33:38.789Z,104.50
2018-12-21T23:36:42.308Z,104.36
2018-12-21T23:39:45.845Z,104.29
2018-12-21T23:42:49.317Z,104.09
2018-12-21T23:45:52.947Z,103.89
2018-12-21T23:48:56.424Z,104.05
2018-12-21T23:52:00.018Z,104.31
2018-12-21T23:55:03.575Z,104.55
2018-12-21T23:58:13.645Z,103.65
